Time,TemperatureF,DewpointF,PressureIn,WindDirection,WindDirectionDegrees,WindSpeedMPH,WindSpeedGustMPH,Humidity,HourlyPrecipIn,Conditions,Clouds,dailyrainin,SoftwareType,DateUTC
2013-02-01 00:00:00,28.8,14.7,29.79,WNW,293,4.0,4.0,55,0.00,,,0.89,LWC V2.11 B50,2013-02-01 05:00:00,
2013-02-01 00:05:00,28.8,14.3,29.79,SW,233,0.0,5.0,54,0.00,,,0.00,LWC V2.11 B50,2013-02-01 05:05:00,
2013-02-01 00:10:00,28.8,14.3,29.79,SW,214,0.0,0.0,54,0.00,,,0.00,LWC V2.11 B50,2013-02-01 05:10:00,
2013-02-01 00:15:00,28.7,14.2,29.79,SSW,195,3.0,7.0,54,0.00,,,0.00,LWC V2.11 B50,2013-02-01 05:15:00,
2013-02-01 00:20:00,28.7,14.2,29.79,SW,232,0.0,0.0,54,0.00,,,0.00,LWC V2.11 B50,2013-02-01 05:20:00,
2013-02-01 00:25:00,28.7,14.2,29.79,NW,309,2.0,3.0,54,0.00,,,0.00,LWC V2.11 B50,2013-02-01 05:25:00,
2013-02-01 00:30:00,28.6,14.1,29.79,NW,306,0.0,3.0,54,0.00,,,0.00,LWC V2.11 B50,2013-02-01 05:30:00,
2013-02-01 00:35:00,28.7,14.2,29.79,SW,215,2.0,8.0,54,0.00,,,0.00,LWC V2.11 B50,2013-02-01 05:35:00,
2013-02-01 00:40:00,28.6,14.1,29.79,SSW,193,1.0,6.0,54,0.00,,,0.00,LWC V2.11 B50,2013-02-01 05:40:00,
2013-02-01 00:45:00,28.6,14.1,29.79,SW,231,4.0,9.0,54,0.00,,,0.00,LWC V2.11 B50,2013-02-01 05:45:00,
2013-02-01 00:50:00,28.6,14.1,29.79,SW,217,0.0,0.0,54,0.00,,,0.00,LWC V2.11 B50,2013-02-01 05:50:00,
2013-02-01 00:55:00,28.6,14.1,29.79,SW,221,0.0,7.0,54,0.00,,,0.00,LWC V2.11 B50,2013-02-01 05:55:00,
2013-02-01 01:00:00,28.5,14.0,29.79,SW,225,0.0,0.0,54,0.00,,,0.00,LWC V2.11 B50,2013-02-01 06:00:00,
2013-02-01 01:05:00,28.5,14.0,29.79,SSW,199,0.0,5.0,54,0.00,,,0.00,LWC V2.11 B50,2013-02-01 06:05:00,
2013-02-01 01:10:00,28.5,14.0,29.79,West,275,1.0,3.0,54,0.00,,,0.00,LWC V2.11 B50,2013-02-01 06:10:00,
2013-02-01 01:15:00,28.5,14.0,29.79,SW,225,0.0,4.0,54,0.00,,,0.00,LWC V2.11 B50,2013-02-01 06:15:00,
2013-02-01 01:20:00,28.5,14.0,29.79,West,269,0.0,1.0,54,0.00,,,0.00,LWC V2.11 B50,2013-02-01 06:20:00,
2013-02-01 01:25:00,28.5,14.0,29.79,SSW,203,0.0,7.0,54,0.00,,,0.00,LWC V2.11 B50,2013-02-01 06:25:00,
2013-02-01 01:30:00,28.5,14.4,29.79,WNW,283,0.0,6.0,55,0.00,,,0.00,LWC V2.11 B50,2013-02-01 06:30:00,
2013-02-01 01:35:00,28.3,14.2,29.79,SSW,212,0.0,0.0,55,0.00,,,0.00,LWC V2.11 B50,2013-02-01 06:35:00,
2013-02-01 01:40:00,28.2,14.1,29.79,West,277,0.0,0.0,55,0.00,,,0.00,LWC V2.11 B50,2013-02-01 06:40:00,
2013-02-01 01:45:00,28.1,14.4,29.79,SW,221,0.0,0.0,56,0.00,,,0.00,LWC V2.11 B50,2013-02-01 06:45:00,
2013-02-01 01:50:00,28.0,14.4,29.79,SSW,213,0.0,0.0,56,0.00,,,0.00,LWC V2.11 B50,2013-02-01 06:50:00,
2013-02-01 01:55:00,27.9,14.3,29.79,SSW,196,0.0,0.0,56,0.00,,,0.00,LWC V2.11 B50,2013-02-01 06:55:00,
2013-02-01 02:00:00,27.9,14.3,29.78,SW,224,0.0,0.0,56,0.00,,,0.00,LWC V2.11 B50,2013-02-01 07:00:00,
2013-02-01 02:05:00,27.8,14.2,29.78,SW,223,0.0,0.0,56,0.00,,,0.00,LWC V2.11 B50,2013-02-01 07:05:00,
2013-02-01 02:10:00,27.7,14.5,29.78,SW,223,0.0,0.0,57,0.00,,,0.00,LWC V2.11 B50,2013-02-01 07:10:00,
2013-02-01 02:15:00,27.6,14.4,29.78,SW,232,0.0,0.0,57,0.00,,,0.00,LWC V2.11 B50,2013-02-01 07:15:00,
2013-02-01 02:20:00,27.5,14.3,29.79,SW,220,0.0,0.0,57,0.00,,,0.00,LWC V2.11 B50,2013-02-01 07:20:00,
2013-02-01 02:25:00,27.4,14.6,29.79,SW,234,0.0,0.0,58,0.00,,,0.00,LWC V2.11 B50,2013-02-01 07:25:00,
2013-02-01 02:30:00,27.5,14.7,29.79,SSW,209,0.0,0.0,58,0.00,,,0.00,LWC V2.11 B50,2013-02-01 07:30:00,
2013-02-01 02:35:00,27.5,16.2,29.79,SW,229,0.0,2.0,62,0.00,,,0.00,LWC V2.11 B50,2013-02-01 07:35:00,
2013-02-01 02:40:00,27.5,14.7,29.79,WSW,256,0.0,0.0,58,0.00,,,0.00,LWC V2.11 B50,2013-02-01 07:40:00,
2013-02-01 02:45:00,27.6,14.8,29.79,SW,217,0.0,0.0,58,0.00,,,0.00,LWC V2.11 B50,2013-02-01 07:45:00,
2013-02-01 02:50:00,27.6,14.8,29.79,SW,223,0.0,0.0,58,0.00,,,0.00,LWC V2.11 B50,2013-02-01 07:50:00,
2013-02-01 02:55:00,27.6,14.8,29.79,SW,218,0.0,0.0,58,0.00,,,0.00,LWC V2.11 B50,2013-02-01 07:55:00,
2013-02-01 03:00:00,27.5,14.7,29.79,SSW,202,0.0,0.0,58,0.00,,,0.00,LWC V2.11 B50,2013-02-01 08:00:00,
2013-02-01 03:05:00,27.5,14.7,29.79,SSW,210,1.0,3.0,58,0.00,,,0.00,LWC V2.11 B50,2013-02-01 08:05:00,
2013-02-01 03:10:00,27.4,15.0,29.79,SW,225,0.0,0.0,59,0.00,,,0.00,LWC V2.11 B50,2013-02-01 08:10:00,
2013-02-01 03:15:00,27.4,15.0,29.79,SW,226,0.0,6.0,59,0.00,,,0.00,LWC V2.11 B50,2013-02-01 08:15:00,
2013-02-01 03:20:00,27.4,15.0,29.79,SSW,203,0.0,0.0,59,0.00,,,0.00,LWC V2.11 B50,2013-02-01 08:20:00,
2013-02-01 03:25:00,27.2,15.2,29.79,SSW,207,0.0,0.0,60,0.00,,,0.00,LWC V2.11 B50,2013-02-01 08:25:00,
2013-02-01 03:30:00,27.2,15.2,29.79,SSW,210,0.0,0.0,60,0.00,,,0.00,LWC V2.11 B50,2013-02-01 08:30:00,
2013-02-01 03:35:00,27.1,15.1,29.79,SSW,210,0.0,0.0,60,0.00,,,0.00,LWC V2.11 B50,2013-02-01 08:35:00,
2013-02-01 03:40:00,26.9,15.3,29.79,SSW,210,0.0,0.0,61,0.00,,,0.00,LWC V2.11 B50,2013-02-01 08:40:00,
2013-02-01 03:45:00,26.7,15.1,29.79,South,183,0.0,0.0,61,0.00,,,0.00,LWC V2.11 B50,2013-02-01 08:45:00,
2013-02-01 03:50:00,26.5,14.9,29.79,South,188,0.0,0.0,61,0.00,,,0.00,LWC V2.11 B50,2013-02-01 08:50:00,
2013-02-01 03:55:00,26.5,14.9,29.79,SSW,207,0.0,0.0,61,0.00,,,0.00,LWC V2.11 B50,2013-02-01 08:55:00,
2013-02-01 04:00:00,26.5,14.9,29.79,SSW,209,0.0,0.0,61,0.00,,,0.00,LWC V2.11 B50,2013-02-01 09:00:00,
2013-02-01 04:05:00,26.4,15.2,29.79,SSW,210,0.0,0.0,62,0.00,,,0.00,LWC V2.11 B50,2013-02-01 09:05:00,
2013-02-01 04:10:00,26.4,15.2,29.79,SSW,210,0.0,0.0,62,0.00,,,0.00,LWC V2.11 B50,2013-02-01 09:10:00,
2013-02-01 04:15:00,26.4,15.2,29.79,SSW,210,0.0,0.0,62,0.00,,,0.00,LWC V2.11 B50,2013-02-01 09:15:00,
2013-02-01 04:20:00,26.4,15.2,29.79,SSW,210,0.0,0.0,62,0.00,,,0.00,LWC V2.11 B50,2013-02-01 09:20:00,
2013-02-01 04:25:00,26.4,15.5,29.79,SSW,210,0.0,0.0,63,0.00,,,0.00,LWC V2.11 B50,2013-02-01 09:25:00,
2013-02-01 04:30:00,26.5,15.6,29.79,SSW,212,0.0,0.0,63,0.00,,,0.00,LWC V2.11 B50,2013-02-01 09:30:00,
2013-02-01 04:35:00,26.6,17.5,29.79,SSW,212,0.0,0.0,68,0.00,,,0.00,LWC V2.11 B50,2013-02-01 09:35:00,
2013-02-01 04:40:00,26.7,15.8,29.79,SSW,211,0.0,0.0,63,0.00,,,0.00,LWC V2.11 B50,2013-02-01 09:40:00,
2013-02-01 04:45:00,26.7,15.8,29.79,SSW,212,0.0,0.0,63,0.00,,,0.00,LWC V2.11 B50,2013-02-01 09:45:00,
2013-02-01 04:50:00,26.9,16.0,29.79,SSW,212,0.0,0.0,63,0.00,,,0.00,LWC V2.11 B50,2013-02-01 09:50:00,
2013-02-01 04:55:00,26.9,15.6,29.79,SSW,213,0.0,0.0,62,0.00,,,0.00,LWC V2.11 B50,2013-02-01 09:55:00,
2013-02-01 05:00:00,27.0,15.7,29.79,SW,214,0.0,0.0,62,0.00,,,0.00,LWC V2.11 B50,2013-02-01 10:00:00,
2013-02-01 05:05:00,27.1,15.8,29.80,SSW,212,0.0,0.0,62,0.00,,,0.00,LWC V2.11 B50,2013-02-01 10:05:00,
2013-02-01 05:10:00,27.3,16.0,29.80,SSW,206,0.0,0.0,62,0.00,,,0.00,LWC V2.11 B50,2013-02-01 10:10:00,
2013-02-01 05:15:00,27.4,16.1,29.80,WNW,286,0.0,0.0,62,0.00,,,0.00,LWC V2.11 B50,2013-02-01 10:15:00,
2013-02-01 05:20:00,27.6,16.3,29.80,SW,221,0.0,0.0,62,0.00,,,0.00,LWC V2.11 B50,2013-02-01 10:20:00,
2013-02-01 05:25:00,27.7,16.4,29.80,WSW,250,0.0,0.0,62,0.00,,,0.00,LWC V2.11 B50,2013-02-01 10:25:00,
2013-02-01 05:30:00,27.8,16.5,29.80,West,273,0.0,0.0,62,0.00,,,0.00,LWC V2.11 B50,2013-02-01 10:30:00,
2013-02-01 05:35:00,28.1,16.4,29.80,WNW,285,0.0,0.0,61,0.00,,,0.00,LWC V2.11 B50,2013-02-01 10:35:00,
2013-02-01 05:40:00,28.2,16.5,29.80,WNW,285,0.0,0.0,61,0.00,,,0.00,LWC V2.11 B50,2013-02-01 10:40:00,
2013-02-01 05:45:00,28.3,16.6,29.80,WNW,285,0.0,0.0,61,0.00,,,0.00,LWC V2.11 B50,2013-02-01 10:45:00,
2013-02-01 05:50:00,28.4,16.7,29.80,WNW,285,0.0,0.0,61,0.00,,,0.00,LWC V2.11 B50,2013-02-01 10:50:00,
2013-02-01 05:55:00,28.5,16.4,29.80,WNW,286,0.0,0.0,60,0.00,,,0.00,LWC V2.11 B50,2013-02-01 10:55:00,
2013-02-01 06:00:00,28.7,16.6,29.80,WNW,291,0.0,0.0,60,0.00,,,0.00,LWC V2.11 B50,2013-02-01 11:00:00,
2013-02-01 06:05:00,28.7,17.0,29.80,WNW,291,0.0,0.0,61,0.00,,,0.00,LWC V2.11 B50,2013-02-01 11:05:00,
2013-02-01 06:10:00,28.7,16.6,29.81,WNW,291,0.0,0.0,60,0.00,,,0.00,LWC V2.11 B50,2013-02-01 11:10:00,
2013-02-01 06:15:00,28.8,17.1,29.81,WNW,291,0.0,0.0,61,0.00,,,0.00,LWC V2.11 B50,2013-02-01 11:15:00,
2013-02-01 06:20:00,28.9,17.2,29.81,WNW,290,0.0,0.0,61,0.00,,,0.00,LWC V2.11 B50,2013-02-01 11:20:00,
2013-02-01 06:25:00,28.9,16.8,29.81,WNW,294,0.0,0.0,60,0.00,,,0.00,LWC V2.11 B50,2013-02-01 11:25:00,
2013-02-01 06:30:00,28.9,16.8,29.81,WNW,300,0.0,0.0,60,0.00,,,0.00,LWC V2.11 B50,2013-02-01 11:30:00,
2013-02-01 06:35:00,28.9,16.8,29.81,WNW,292,0.0,0.0,60,0.00,,,0.00,LWC V2.11 B50,2013-02-01 11:35:00,
2013-02-01 06:40:00,28.9,16.8,29.81,NW,307,0.0,0.0,60,0.00,,,0.00,LWC V2.11 B50,2013-02-01 11:40:00,
2013-02-01 06:45:00,28.9,16.8,29.81,WNW,288,0.0,0.0,60,0.00,,,0.00,LWC V2.11 B50,2013-02-01 11:45:00,
2013-02-01 06:50:00,28.9,16.8,29.81,West,269,0.0,0.0,60,0.00,,,0.00,LWC V2.11 B50,2013-02-01 11:50:00,
2013-02-01 06:55:00,28.9,16.8,29.81,WNW,288,0.0,0.0,60,0.00,,,0.00,LWC V2.11 B50,2013-02-01 11:55:00,
2013-02-01 07:00:00,28.8,16.7,29.81,WNW,298,0.0,0.0,60,0.00,,,0.00,LWC V2.11 B50,2013-02-01 12:00:00,
2013-02-01 07:05:00,28.8,17.1,29.81,WNW,294,0.0,0.0,61,0.00,,,0.00,LWC V2.11 B50,2013-02-01 12:05:00,
2013-02-01 07:10:00,28.8,17.1,29.80,WNW,302,0.0,0.0,61,0.00,,,0.00,LWC V2.11 B50,2013-02-01 12:10:00,
2013-02-01 07:15:00,28.7,17.4,29.80,WNW,296,0.0,0.0,62,0.00,,,0.00,LWC V2.11 B50,2013-02-01 12:15:00,
2013-02-01 07:20:00,28.7,17.0,29.81,WNW,295,0.0,9.0,61,0.00,,,0.00,LWC V2.11 B50,2013-02-01 12:20:00,
2013-02-01 07:25:00,28.7,17.0,29.80,WNW,285,0.0,0.0,61,0.00,,,0.00,LWC V2.11 B50,2013-02-01 12:25:00,
2013-02-01 07:30:00,28.7,17.4,29.80,WNW,286,0.0,0.0,62,0.00,,,0.00,LWC V2.11 B50,2013-02-01 12:30:00,
2013-02-01 07:35:00,28.7,17.4,29.81,WNW,293,0.0,0.0,62,0.00,,,0.00,LWC V2.11 B50,2013-02-01 12:35:00,
2013-02-01 07:40:00,28.7,17.7,29.81,WNW,293,0.0,0.0,63,0.00,,,0.00,LWC V2.11 B50,2013-02-01 12:40:00,
2013-02-01 07:45:00,28.7,17.7,29.81,WNW,292,0.0,0.0,63,0.00,,,0.00,LWC V2.11 B50,2013-02-01 12:45:00,
2013-02-01 07:50:00,28.7,17.7,29.81,West,280,0.0,0.0,63,0.00,,,0.00,LWC V2.11 B50,2013-02-01 12:50:00,
2013-02-01 07:55:00,28.8,17.8,29.82,WNW,286,0.0,0.0,63,0.00,,,0.00,LWC V2.11 B50,2013-02-01 12:55:00,
2013-02-01 08:00:00,28.8,17.8,29.82,WNW,286,0.0,0.0,63,0.00,,,0.00,LWC V2.11 B50,2013-02-01 13:00:00,
2013-02-01 08:05:00,28.9,17.9,29.82,WNW,291,0.0,1.0,63,0.00,,,0.00,LWC V2.11 B50,2013-02-01 13:05:00,
2013-02-01 08:10:00,28.9,18.3,29.82,WNW,300,0.0,2.0,64,0.00,,,0.00,LWC V2.11 B50,2013-02-01 13:10:00,
2013-02-01 08:15:00,28.9,18.3,29.82,West,276,0.0,1.0,64,0.00,,,0.00,LWC V2.11 B50,2013-02-01 13:15:00,
2013-02-01 08:20:00,28.9,18.3,29.82,WNW,286,5.0,6.0,64,0.00,,,0.00,LWC V2.11 B50,2013-02-01 13:20:00,
2013-02-01 08:25:00,28.9,18.3,29.83,WNW,296,0.0,7.0,64,0.00,,,0.00,LWC V2.11 B50,2013-02-01 13:25:00,
2013-02-01 08:30:00,29.0,18.4,29.83,WNW,287,1.0,11.0,64,0.00,,,0.00,LWC V2.11 B50,2013-02-01 13:30:00,
2013-02-01 08:35:00,29.1,18.5,29.83,WNW,283,7.0,10.0,64,0.00,,,0.00,LWC V2.11 B50,2013-02-01 13:35:00,
2013-02-01 08:40:00,29.1,18.8,29.83,West,268,7.0,7.0,65,0.00,,,0.00,LWC V2.11 B50,2013-02-01 13:40:00,
2013-02-01 08:45:00,29.2,18.9,29.83,WNW,286,3.0,3.0,65,0.00,,,0.00,LWC V2.11 B50,2013-02-01 13:45:00,
2013-02-01 08:50:00,29.3,19.0,29.83,WNW,298,4.0,10.0,65,0.00,,,0.00,LWC V2.11 B50,2013-02-01 13:50:00,
2013-02-01 08:55:00,29.2,18.9,29.84,West,277,9.0,12.0,65,0.00,,,0.00,LWC V2.11 B50,2013-02-01 13:55:00,
2013-02-01 09:00:00,29.2,18.9,29.84,WNW,302,0.0,10.0,65,0.00,,,0.00,LWC V2.11 B50,2013-02-01 14:00:00,
2013-02-01 09:05:00,29.1,18.5,29.85,WNW,292,13.0,18.0,64,0.00,,,0.00,LWC V2.11 B50,2013-02-01 14:05:00,
2013-02-01 09:10:00,28.8,18.9,29.85,NW,308,10.0,10.0,66,0.00,,,0.00,LWC V2.11 B50,2013-02-01 14:10:00,
2013-02-01 09:15:00,28.4,18.9,29.85,WSW,257,4.0,16.0,67,0.00,,,0.00,LWC V2.11 B50,2013-02-01 14:15:00,
2013-02-01 09:20:00,28.1,18.6,29.85,WNW,284,5.0,6.0,67,0.00,,,0.00,LWC V2.11 B50,2013-02-01 14:20:00,
2013-02-01 09:25:00,28.2,19.0,29.85,WNW,288,15.0,15.0,68,0.00,,,0.00,LWC V2.11 B50,2013-02-01 14:25:00,
2013-02-01 09:30:00,27.1,20.2,29.86,WNW,291,7.0,17.0,75,0.00,,,0.00,LWC V2.11 B50,2013-02-01 14:30:00,
2013-02-01 09:35:00,26.1,19.3,29.86,NW,304,5.0,10.0,75,0.00,,,0.00,LWC V2.11 B50,2013-02-01 14:35:00,
2013-02-01 09:40:00,26.1,18.7,29.86,NW,304,5.0,11.0,73,0.00,,,0.00,LWC V2.11 B50,2013-02-01 14:40:00,
2013-02-01 09:45:00,26.4,17.6,29.86,WNW,294,6.0,18.0,69,0.00,,,0.00,LWC V2.11 B50,2013-02-01 14:45:00,
2013-02-01 09:50:00,26.7,16.9,29.87,WNW,300,6.0,11.0,66,0.00,,,0.00,LWC V2.11 B50,2013-02-01 14:50:00,
2013-02-01 09:55:00,27.0,15.7,29.87,West,278,14.0,21.0,62,0.00,,,0.00,LWC V2.11 B50,2013-02-01 14:55:00,
2013-02-01 10:00:00,27.2,14.8,29.87,NW,310,13.0,17.0,59,0.00,,,0.00,LWC V2.11 B50,2013-02-01 15:00:00,
2013-02-01 10:05:00,27.2,13.6,29.87,West,259,5.0,21.0,56,0.00,,,0.00,LWC V2.11 B50,2013-02-01 15:05:00,
2013-02-01 10:10:00,27.3,13.3,29.87,WNW,299,4.0,14.0,55,0.00,,,0.00,LWC V2.11 B50,2013-02-01 15:10:00,
2013-02-01 10:15:00,27.6,14.0,29.87,WNW,286,3.0,9.0,56,0.00,,,0.00,LWC V2.11 B50,2013-02-01 15:15:00,
2013-02-01 10:20:00,28.1,13.6,29.87,NW,313,14.0,14.0,54,0.00,,,0.00,LWC V2.11 B50,2013-02-01 15:20:00,
2013-02-01 10:25:00,28.3,12.5,29.87,West,269,4.0,18.0,51,0.00,,,0.00,LWC V2.11 B50,2013-02-01 15:25:00,
2013-02-01 10:30:00,28.6,12.8,29.87,West,281,10.0,16.0,51,0.00,,,0.00,LWC V2.11 B50,2013-02-01 15:30:00,
2013-02-01 10:35:00,28.6,12.8,29.88,West,265,13.0,14.0,51,0.00,,,0.00,LWC V2.11 B50,2013-02-01 15:35:00,
2013-02-01 10:40:00,28.4,12.2,29.88,West,275,10.0,18.0,50,0.00,,,0.00,LWC V2.11 B50,2013-02-01 15:40:00,
2013-02-01 10:45:00,28.4,12.2,29.88,NW,310,7.0,12.0,50,0.00,,,0.00,LWC V2.11 B50,2013-02-01 15:45:00,
2013-02-01 10:50:00,28.4,11.2,29.88,WNW,294,11.0,19.0,48,0.00,,,0.00,LWC V2.11 B50,2013-02-01 15:50:00,
2013-02-01 10:55:00,28.3,11.6,29.88,West,271,13.0,13.0,49,0.00,,,0.00,LWC V2.11 B50,2013-02-01 15:55:00,
2013-02-01 11:00:00,28.5,11.8,29.88,West,273,5.0,21.0,49,0.00,,,0.00,LWC V2.11 B50,2013-02-01 16:00:00,
2013-02-01 11:05:00,28.6,12.3,29.88,WNW,287,19.0,19.0,50,0.00,,,0.00,LWC V2.11 B50,2013-02-01 16:05:00,
2013-02-01 11:10:00,28.7,12.4,29.88,WNW,303,10.0,11.0,50,0.00,,,0.00,LWC V2.11 B50,2013-02-01 16:10:00,
2013-02-01 11:15:00,28.7,12.0,29.88,WNW,303,15.0,17.0,49,0.00,,,0.00,LWC V2.11 B50,2013-02-01 16:15:00,
2013-02-01 11:20:00,29.0,12.3,29.88,West,271,9.0,14.0,49,0.00,,,0.00,LWC V2.11 B50,2013-02-01 16:20:00,
2013-02-01 11:25:00,29.5,12.3,29.88,NW,306,7.0,16.0,48,0.00,,,0.00,LWC V2.11 B50,2013-02-01 16:25:00,
2013-02-01 11:30:00,29.1,11.4,29.88,NW,309,7.0,18.0,47,0.00,,,0.00,LWC V2.11 B50,2013-02-01 16:30:00,
2013-02-01 11:35:00,28.8,11.1,29.88,NW,304,7.0,17.0,47,0.00,,,0.00,LWC V2.11 B50,2013-02-01 16:35:00,
2013-02-01 11:38:00,28.8,11.1,29.89,WNW,290,11.0,24.0,47,0.00,,,0.00,LWC V2.11 B50,2013-02-01 16:38:00,
2013-02-01 11:43:00,29.0,11.3,29.89,WNW,287,6.0,12.0,47,0.00,,,0.00,LWC V2.11 B50,2013-02-01 16:43:00,
2013-02-01 11:48:00,29.0,11.3,29.89,West,277,10.0,19.0,47,0.00,,,0.00,LWC V2.11 B50,2013-02-01 16:48:00,
2013-02-01 11:49:00,28.9,11.7,29.89,West,269,4.0,12.0,48,0.00,,,0.00,LWC V2.11 B50,2013-02-01 16:49:00,
2013-02-01 11:54:00,29.3,12.1,29.89,WNW,300,7.0,10.0,48,0.00,,,0.00,LWC V2.11 B50,2013-02-01 16:54:00,
2013-02-01 11:59:00,29.5,11.8,29.89,WNW,291,7.0,22.0,47,0.00,,,0.00,LWC V2.11 B50,2013-02-01 16:59:00,
2013-02-01 12:04:00,28.9,10.8,29.89,WNW,300,14.0,22.0,46,0.00,,,0.00,LWC V2.11 B50,2013-02-01 17:04:00,
2013-02-01 12:09:00,28.8,10.7,29.89,NW,305,6.0,17.0,46,0.00,,,0.00,LWC V2.11 B50,2013-02-01 17:09:00,
2013-02-01 12:14:00,29.0,10.8,29.89,WNW,297,11.0,18.0,46,0.00,,,0.00,LWC V2.11 B50,2013-02-01 17:14:00,
2013-02-01 12:19:00,29.1,11.4,29.90,WNW,290,13.0,26.0,47,0.00,,,0.00,LWC V2.11 B50,2013-02-01 17:19:00,
2013-02-01 12:24:00,29.0,10.4,29.89,WNW,298,13.0,18.0,45,0.00,,,0.00,LWC V2.11 B50,2013-02-01 17:24:00,
2013-02-01 12:29:00,29.3,10.1,29.89,NW,309,10.0,21.0,44,0.00,,,0.00,LWC V2.11 B50,2013-02-01 17:29:00,
2013-02-01 12:34:00,29.4,10.7,29.90,NW,306,14.0,23.0,45,0.00,,,0.00,LWC V2.11 B50,2013-02-01 17:34:00,
2013-02-01 12:39:00,29.6,11.4,29.90,WNW,292,9.0,21.0,46,0.00,,,0.00,LWC V2.11 B50,2013-02-01 17:39:00,
2013-02-01 12:44:00,30.5,11.2,29.90,WNW,295,14.0,21.0,44,0.00,,,0.00,LWC V2.11 B50,2013-02-01 17:44:00,
2013-02-01 12:49:00,29.9,9.6,29.90,WNW,288,13.0,25.0,42,0.00,,,0.00,LWC V2.11 B50,2013-02-01 17:49:00,
2013-02-01 12:54:00,29.4,10.2,29.90,WNW,301,9.0,15.0,44,0.00,,,0.00,LWC V2.11 B50,2013-02-01 17:54:00,
2013-02-01 12:59:00,29.3,9.1,29.91,WNW,287,9.0,21.0,42,0.00,,,0.00,LWC V2.11 B50,2013-02-01 17:59:00,
2013-02-01 13:04:00,29.6,10.9,29.91,NW,306,17.0,17.0,45,0.00,,,0.00,LWC V2.11 B50,2013-02-01 18:04:00,
2013-02-01 13:09:00,29.9,10.2,29.91,South,187,4.0,23.0,43,0.00,,,0.00,LWC V2.11 B50,2013-02-01 18:09:00,
2013-02-01 13:14:00,29.6,9.4,29.91,WNW,302,7.0,17.0,42,0.00,,,0.00,LWC V2.11 B50,2013-02-01 18:14:00,
2013-02-01 13:19:00,29.4,9.2,29.92,WNW,284,11.0,13.0,42,0.00,,,0.00,LWC V2.11 B50,2013-02-01 18:19:00,
2013-02-01 13:24:00,29.5,8.7,29.92,NW,306,17.0,22.0,41,0.00,,,0.00,LWC V2.11 B50,2013-02-01 18:24:00,
2013-02-01 13:29:00,29.6,9.4,29.92,NW,319,10.0,21.0,42,0.00,,,0.00,LWC V2.11 B50,2013-02-01 18:29:00,
2013-02-01 13:34:00,29.4,9.2,29.93,WNW,299,6.0,11.0,42,0.00,,,0.00,LWC V2.11 B50,2013-02-01 18:34:00,
2013-02-01 13:39:00,29.4,8.6,29.93,West,272,2.0,15.0,41,0.00,,,0.00,LWC V2.11 B50,2013-02-01 18:39:00,
2013-02-01 13:44:00,29.6,9.4,29.93,West,275,14.0,14.0,42,0.00,,,0.00,LWC V2.11 B50,2013-02-01 18:44:00,
2013-02-01 13:49:00,29.4,9.2,29.93,WNW,282,6.0,19.0,42,0.00,,,0.00,LWC V2.11 B50,2013-02-01 18:49:00,
2013-02-01 13:54:00,29.2,10.0,29.93,NW,307,14.0,14.0,44,0.00,,,0.00,LWC V2.11 B50,2013-02-01 18:54:00,
2013-02-01 13:59:00,29.2,9.5,29.94,WNW,300,24.0,26.0,43,0.00,,,0.00,LWC V2.11 B50,2013-02-01 18:59:00,
2013-02-01 14:04:00,29.0,9.8,29.94,WNW,299,12.0,14.0,44,0.00,,,0.00,LWC V2.11 B50,2013-02-01 19:04:00,
2013-02-01 14:09:00,29.2,9.0,29.94,West,277,4.0,19.0,42,0.00,,,0.00,LWC V2.11 B50,2013-02-01 19:09:00,
2013-02-01 14:14:00,29.3,8.6,29.94,WNW,296,13.0,21.0,41,0.00,,,0.00,LWC V2.11 B50,2013-02-01 19:14:00,
2013-02-01 14:19:00,29.3,8.6,29.94,West,271,7.0,13.0,41,0.00,,,0.00,LWC V2.11 B50,2013-02-01 19:19:00,
2013-02-01 14:24:00,29.8,10.1,29.94,WSW,238,2.0,16.0,43,0.00,,,0.00,LWC V2.11 B50,2013-02-01 19:24:00,
2013-02-01 14:29:00,30.4,10.6,29.95,WNW,298,7.0,16.0,43,0.00,,,0.00,LWC V2.11 B50,2013-02-01 19:29:00,
2013-02-01 14:34:00,29.9,9.6,29.95,NW,306,10.0,13.0,42,0.00,,,0.00,LWC V2.11 B50,2013-02-01 19:34:00,
2013-02-01 14:39:00,29.6,9.4,29.95,WNW,283,12.0,14.0,42,0.00,,,0.00,LWC V2.11 B50,2013-02-01 19:39:00,
2013-02-01 14:44:00,29.5,8.7,29.96,West,277,12.0,22.0,41,0.00,,,0.00,LWC V2.11 B50,2013-02-01 19:44:00,
2013-02-01 14:49:00,29.6,9.9,29.95,WNW,296,19.0,19.0,43,0.00,,,0.00,LWC V2.11 B50,2013-02-01 19:49:00,
2013-02-01 14:54:00,29.8,10.1,29.96,NW,304,15.0,17.0,43,0.00,,,0.00,LWC V2.11 B50,2013-02-01 19:54:00,
2013-02-01 14:59:00,30.1,9.3,29.96,WNW,288,6.0,22.0,41,0.00,,,0.00,LWC V2.11 B50,2013-02-01 19:59:00,
2013-02-01 15:04:00,29.6,8.8,29.96,WNW,300,7.0,13.0,41,0.00,,,0.00,LWC V2.11 B50,2013-02-01 20:04:00,
2013-02-01 15:09:00,29.5,8.7,29.97,NW,322,18.0,18.0,41,0.00,,,0.00,LWC V2.11 B50,2013-02-01 20:09:00,
2013-02-01 15:14:00,29.2,9.0,29.97,WNW,286,10.0,16.0,42,0.00,,,0.00,LWC V2.11 B50,2013-02-01 20:14:00,
2013-02-01 15:19:00,29.6,8.8,29.97,WNW,298,11.0,19.0,41,0.00,,,0.00,LWC V2.11 B50,2013-02-01 20:19:00,
2013-02-01 15:24:00,29.9,8.5,29.98,West,281,4.0,12.0,40,0.00,,,0.00,LWC V2.11 B50,2013-02-01 20:24:00,
2013-02-01 15:29:00,29.8,8.5,29.98,WNW,286,13.0,22.0,40,0.00,,,0.00,LWC V2.11 B50,2013-02-01 20:29:00,
2013-02-01 15:34:00,29.5,8.2,29.98,WNW,288,4.0,11.0,40,0.00,,,0.00,LWC V2.11 B50,2013-02-01 20:34:00,
2013-02-01 15:39:00,29.4,8.6,29.98,WNW,283,9.0,10.0,41,0.00,,,0.00,LWC V2.11 B50,2013-02-01 20:39:00,
2013-02-01 15:44:00,29.3,9.1,29.99,NW,306,10.0,17.0,42,0.00,,,0.00,LWC V2.11 B50,2013-02-01 20:44:00,
2013-02-01 15:49:00,29.0,8.3,29.99,WNW,295,12.0,19.0,41,0.00,,,0.00,LWC V2.11 B50,2013-02-01 20:49:00,
2013-02-01 15:54:00,28.9,7.6,29.99,NNW,329,10.0,15.0,40,0.00,,,0.00,LWC V2.11 B50,2013-02-01 20:54:00,
2013-02-01 15:59:00,28.8,7.6,30.00,West,265,9.0,17.0,40,0.00,,,0.00,LWC V2.11 B50,2013-02-01 20:59:00,
2013-02-01 16:04:00,28.8,8.6,30.00,WNW,290,10.0,18.0,42,0.00,,,0.00,LWC V2.11 B50,2013-02-01 21:04:00,
2013-02-01 16:09:00,28.8,9.2,30.00,WNW,284,3.0,14.0,43,0.00,,,0.00,LWC V2.11 B50,2013-02-01 21:09:00,
2013-02-01 16:14:00,28.8,8.6,30.01,WNW,296,4.0,15.0,42,0.00,,,0.00,LWC V2.11 B50,2013-02-01 21:14:00,
2013-02-01 16:19:00,28.7,9.6,30.01,WNW,296,11.0,21.0,44,0.00,,,0.00,LWC V2.11 B50,2013-02-01 21:19:00,
2013-02-01 16:24:00,28.7,10.1,30.01,WNW,288,12.0,15.0,45,0.00,,,0.00,LWC V2.11 B50,2013-02-01 21:24:00,
2013-02-01 16:29:00,28.5,9.4,30.02,West,279,9.0,20.0,44,0.00,,,0.00,LWC V2.11 B50,2013-02-01 21:29:00,
2013-02-01 16:34:00,28.3,9.2,30.02,NW,309,6.0,17.0,44,0.00,,,0.00,LWC V2.11 B50,2013-02-01 21:34:00,
2013-02-01 16:39:00,28.1,10.0,30.02,WNW,292,10.0,16.0,46,0.00,,,0.00,LWC V2.11 B50,2013-02-01 21:39:00,
2013-02-01 16:44:00,27.9,9.8,30.03,NW,306,8.0,17.0,46,0.00,,,0.00,LWC V2.11 B50,2013-02-01 21:44:00,
2013-02-01 16:49:00,27.9,9.3,30.03,WNW,292,10.0,20.0,45,0.00,,,0.00,LWC V2.11 B50,2013-02-01 21:49:00,
2013-02-01 16:54:00,27.8,9.3,30.04,NW,306,6.0,16.0,45,0.00,,,0.00,LWC V2.11 B50,2013-02-01 21:54:00,
2013-02-01 16:59:00,27.6,9.1,30.04,NW,309,6.0,25.0,45,0.00,,,0.00,LWC V2.11 B50,2013-02-01 21:59:00,
2013-02-01 17:04:00,27.5,9.5,30.04,WNW,299,6.0,15.0,46,0.00,,,0.00,LWC V2.11 B50,2013-02-01 22:04:00,
2013-02-01 17:09:00,27.4,9.4,30.05,WNW,292,9.0,12.0,46,0.00,,,0.00,LWC V2.11 B50,2013-02-01 22:09:00,
2013-02-01 17:14:00,27.2,9.7,30.05,WNW,300,11.0,17.0,47,0.00,,,0.00,LWC V2.11 B50,2013-02-01 22:14:00,
2013-02-01 17:19:00,27.1,9.1,30.06,NW,304,12.0,15.0,46,0.00,,,0.00,LWC V2.11 B50,2013-02-01 22:19:00,
2013-02-01 17:24:00,27.0,9.5,30.06,WNW,296,3.0,11.0,47,0.00,,,0.00,LWC V2.11 B50,2013-02-01 22:24:00,
2013-02-01 17:29:00,26.9,9.9,30.06,NW,309,15.0,15.0,48,0.00,,,0.00,LWC V2.11 B50,2013-02-01 22:29:00,
2013-02-01 17:34:00,26.8,9.3,30.06,WNW,295,7.0,9.0,47,0.00,,,0.00,LWC V2.11 B50,2013-02-01 22:34:00,
2013-02-01 17:39:00,26.7,9.2,30.07,West,281,2.0,10.0,47,0.00,,,0.00,LWC V2.11 B50,2013-02-01 22:39:00,
2013-02-01 17:44:00,26.7,9.2,30.07,WNW,290,9.0,11.0,47,0.00,,,0.00,LWC V2.11 B50,2013-02-01 22:44:00,
2013-02-01 17:49:00,26.6,9.1,30.07,West,281,2.0,9.0,47,0.00,,,0.00,LWC V2.11 B50,2013-02-01 22:49:00,
2013-02-01 17:54:00,26.5,9.0,30.07,WNW,292,12.0,14.0,47,0.00,,,0.00,LWC V2.11 B50,2013-02-01 22:54:00,
2013-02-01 17:59:00,26.6,8.6,30.08,WNW,294,11.0,12.0,46,0.00,,,0.00,LWC V2.11 B50,2013-02-01 22:59:00,
2013-02-01 18:04:00,26.6,8.6,30.08,WNW,300,4.0,13.0,46,0.00,,,0.00,LWC V2.11 B50,2013-02-01 23:04:00,
2013-02-01 18:09:00,26.6,8.6,30.09,West,281,9.0,19.0,46,0.00,,,0.00,LWC V2.11 B50,2013-02-01 23:09:00,
2013-02-01 18:14:00,26.5,8.6,30.09,WNW,291,6.0,6.0,46,0.00,,,0.00,LWC V2.11 B50,2013-02-01 23:14:00,
2013-02-01 18:19:00,26.4,8.0,30.09,SW,236,4.0,13.0,45,0.00,,,0.00,LWC V2.11 B50,2013-02-01 23:19:00,
2013-02-01 18:24:00,26.3,7.9,30.09,WNW,290,3.0,14.0,45,0.00,,,0.00,LWC V2.11 B50,2013-02-01 23:24:00,
2013-02-01 18:29:00,26.3,7.9,30.10,WNW,290,4.0,13.0,45,0.00,,,0.00,LWC V2.11 B50,2013-02-01 23:29:00,
2013-02-01 18:34:00,26.3,8.4,30.10,WNW,291,4.0,11.0,46,0.00,,,0.00,LWC V2.11 B50,2013-02-01 23:34:00,
2013-02-01 18:39:00,26.2,9.2,30.11,WNW,302,10.0,16.0,48,0.00,,,0.00,LWC V2.11 B50,2013-02-01 23:39:00,
2013-02-01 18:44:00,26.0,9.5,30.11,NNW,331,7.0,14.0,49,0.00,,,0.00,LWC V2.11 B50,2013-02-01 23:44:00,
2013-02-01 18:49:00,25.8,9.3,30.12,West,280,9.0,13.0,49,0.00,,,0.00,LWC V2.11 B50,2013-02-01 23:49:00,
2013-02-01 18:54:00,25.7,9.7,30.12,WNW,302,9.0,11.0,50,0.00,,,0.00,LWC V2.11 B50,2013-02-01 23:54:00,
2013-02-01 18:59:00,25.6,9.6,30.12,WNW,294,7.0,15.0,50,0.00,,,0.00,LWC V2.11 B50,2013-02-01 23:59:00,
2013-02-01 19:04:00,25.5,9.5,30.13,WNW,288,3.0,7.0,50,0.00,,,0.00,LWC V2.11 B50,2013-02-02 00:04:00,
2013-02-01 19:09:00,25.4,9.4,30.13,West,267,7.0,13.0,50,0.00,,,0.00,LWC V2.11 B50,2013-02-02 00:09:00,
2013-02-01 19:14:00,25.4,9.4,30.13,WNW,295,9.0,13.0,50,0.00,,,0.00,LWC V2.11 B50,2013-02-02 00:14:00,
2013-02-01 19:19:00,25.3,8.8,30.13,West,276,9.0,11.0,49,0.00,,,0.00,LWC V2.11 B50,2013-02-02 00:19:00,
2013-02-01 19:24:00,25.3,8.8,30.13,WNW,298,11.0,16.0,49,0.00,,,0.00,LWC V2.11 B50,2013-02-02 00:24:00,
2013-02-01 19:29:00,25.3,8.8,30.14,WNW,287,6.0,17.0,49,0.00,,,0.00,LWC V2.11 B50,2013-02-02 00:29:00,
2013-02-01 19:34:00,25.3,8.8,30.14,WNW,290,6.0,13.0,49,0.00,,,0.00,LWC V2.11 B50,2013-02-02 00:34:00,
2013-02-01 19:39:00,25.1,9.1,30.14,WNW,288,5.0,9.0,50,0.00,,,0.00,LWC V2.11 B50,2013-02-02 00:39:00,
2013-02-01 19:44:00,25.0,9.0,30.14,WNW,283,9.0,10.0,50,0.00,,,0.00,LWC V2.11 B50,2013-02-02 00:44:00,
2013-02-01 19:49:00,24.9,8.9,30.14,WNW,286,10.0,14.0,50,0.00,,,0.00,LWC V2.11 B50,2013-02-02 00:49:00,
2013-02-01 19:54:00,24.9,8.9,30.14,WNW,291,9.0,13.0,50,0.00,,,0.00,LWC V2.11 B50,2013-02-02 00:54:00,
2013-02-01 19:59:00,24.8,8.8,30.15,NW,310,6.0,11.0,50,0.00,,,0.00,LWC V2.11 B50,2013-02-02 00:59:00,
2013-02-01 20:04:00,24.7,8.7,30.15,WNW,286,6.0,12.0,50,0.00,,,0.00,LWC V2.11 B50,2013-02-02 01:04:00,
2013-02-01 20:09:00,24.7,8.7,30.15,WNW,290,2.0,11.0,50,0.00,,,0.00,LWC V2.11 B50,2013-02-02 01:09:00,
2013-02-01 20:14:00,24.5,9.0,30.16,WNW,294,8.0,12.0,51,0.00,,,0.00,LWC V2.11 B50,2013-02-02 01:14:00,
2013-02-01 20:19:00,24.5,8.6,30.16,NW,304,3.0,13.0,50,0.00,,,0.00,LWC V2.11 B50,2013-02-02 01:19:00,
2013-02-01 20:24:00,24.5,8.6,30.16,WNW,287,9.0,15.0,50,0.00,,,0.00,LWC V2.11 B50,2013-02-02 01:24:00,
2013-02-01 20:29:00,24.4,8.5,30.16,WNW,298,7.0,10.0,50,0.00,,,0.00,LWC V2.11 B50,2013-02-02 01:29:00,
2013-02-01 20:34:00,24.3,8.4,30.16,WNW,293,7.0,13.0,50,0.00,,,0.00,LWC V2.11 B50,2013-02-02 01:34:00,
2013-02-01 20:39:00,24.3,8.8,30.17,WNW,295,12.0,12.0,51,0.00,,,0.00,LWC V2.11 B50,2013-02-02 01:39:00,
2013-02-01 20:44:00,24.3,8.8,30.17,WNW,291,11.0,12.0,51,0.00,,,0.00,LWC V2.11 B50,2013-02-02 01:44:00,
2013-02-01 20:49:00,24.2,8.7,30.17,WNW,293,6.0,15.0,51,0.00,,,0.00,LWC V2.11 B50,2013-02-02 01:49:00,
2013-02-01 20:54:00,24.1,8.6,30.18,WNW,300,8.0,14.0,51,0.00,,,0.00,LWC V2.11 B50,2013-02-02 01:54:00,
2013-02-01 20:59:00,24.0,8.5,30.18,WNW,293,8.0,13.0,51,0.00,,,0.00,LWC V2.11 B50,2013-02-02 01:59:00,
2013-02-01 21:04:00,23.9,8.9,30.18,WNW,298,6.0,12.0,52,0.00,,,0.00,LWC V2.11 B50,2013-02-02 02:04:00,
2013-02-01 21:09:00,23.9,8.9,30.18,NW,313,9.0,10.0,52,0.00,,,0.00,LWC V2.11 B50,2013-02-02 02:09:00,
2013-02-01 21:14:00,23.8,8.8,30.19,WNW,296,6.0,11.0,52,0.00,,,0.00,LWC V2.11 B50,2013-02-02 02:14:00,
2013-02-01 21:19:00,23.8,8.8,30.19,NW,311,10.0,17.0,52,0.00,,,0.00,LWC V2.11 B50,2013-02-02 02:19:00,
2013-02-01 21:24:00,23.7,8.7,30.19,NNW,327,1.0,13.0,52,0.00,,,0.00,LWC V2.11 B50,2013-02-02 02:24:00,
2013-02-01 21:29:00,23.6,9.0,30.19,WNW,299,7.0,12.0,53,0.00,,,0.00,LWC V2.11 B50,2013-02-02 02:29:00,
2013-02-01 21:34:00,23.5,8.9,30.19,WNW,295,10.0,14.0,53,0.00,,,0.00,LWC V2.11 B50,2013-02-02 02:34:00,
2013-02-01 21:39:00,23.4,9.2,30.19,West,281,11.0,15.0,54,0.00,,,0.00,LWC V2.11 B50,2013-02-02 02:39:00,
2013-02-01 21:44:00,23.3,9.1,30.19,WNW,303,9.0,16.0,54,0.00,,,0.00,LWC V2.11 B50,2013-02-02 02:44:00,
2013-02-01 21:49:00,23.3,9.1,30.20,West,268,3.0,11.0,54,0.00,,,0.00,LWC V2.11 B50,2013-02-02 02:49:00,
2013-02-01 21:54:00,23.1,9.4,30.20,WNW,282,7.0,10.0,55,0.00,,,0.00,LWC V2.11 B50,2013-02-02 02:54:00,
2013-02-01 21:59:00,23.1,9.4,30.20,WNW,286,10.0,13.0,55,0.00,,,0.00,LWC V2.11 B50,2013-02-02 02:59:00,
2013-02-01 22:04:00,23.1,9.4,30.20,WNW,288,3.0,13.0,55,0.00,,,0.00,LWC V2.11 B50,2013-02-02 03:04:00,
2013-02-01 22:09:00,23.0,9.3,30.21,NW,309,10.0,11.0,55,0.00,,,0.00,LWC V2.11 B50,2013-02-02 03:09:00,
2013-02-01 22:14:00,23.0,9.3,30.22,WNW,293,1.0,6.0,55,0.00,,,0.00,LWC V2.11 B50,2013-02-02 03:14:00,
2013-02-01 22:19:00,22.9,9.6,30.21,WNW,290,7.0,7.0,56,0.00,,,0.00,LWC V2.11 B50,2013-02-02 03:19:00,
2013-02-01 22:24:00,22.8,9.5,30.22,WNW,290,6.0,11.0,56,0.00,,,0.00,LWC V2.11 B50,2013-02-02 03:24:00,
2013-02-01 22:29:00,22.7,9.4,30.22,WNW,296,4.0,4.0,56,0.00,,,0.00,LWC V2.11 B50,2013-02-02 03:29:00,
2013-02-01 22:34:00,22.6,9.3,30.22,WNW,299,5.0,10.0,56,0.00,,,0.00,LWC V2.11 B50,2013-02-02 03:34:00,
2013-02-01 22:39:00,22.6,9.3,30.22,WNW,284,3.0,6.0,56,0.00,,,0.00,LWC V2.11 B50,2013-02-02 03:39:00,
2013-02-01 22:44:00,22.5,9.2,30.22,WNW,296,5.0,10.0,56,0.00,,,0.00,LWC V2.11 B50,2013-02-02 03:44:00,
2013-02-01 22:49:00,22.5,9.2,30.22,WNW,287,6.0,10.0,56,0.00,,,0.00,LWC V2.11 B50,2013-02-02 03:49:00,
2013-02-01 22:54:00,22.4,9.1,30.22,WNW,290,3.0,11.0,56,0.00,,,0.00,LWC V2.11 B50,2013-02-02 03:54:00,
2013-02-01 22:59:00,22.4,9.1,30.23,WNW,295,1.0,11.0,56,0.00,,,0.00,LWC V2.11 B50,2013-02-02 03:59:00,
2013-02-01 23:04:00,22.4,9.1,30.23,WNW,290,5.0,13.0,56,0.00,,,0.00,LWC V2.11 B50,2013-02-02 04:04:00,
2013-02-01 23:09:00,22.4,9.5,30.23,WNW,286,6.0,9.0,57,0.00,,,0.00,LWC V2.11 B50,2013-02-02 04:09:00,
2013-02-01 23:14:00,22.2,9.3,30.23,WNW,290,8.0,10.0,57,0.00,,,0.00,LWC V2.11 B50,2013-02-02 04:14:00,
2013-02-01 23:19:00,22.2,9.3,30.23,West,264,5.0,12.0,57,0.00,,,0.00,LWC V2.11 B50,2013-02-02 04:19:00,
2013-02-01 23:24:00,22.2,9.3,30.23,NW,315,5.0,14.0,57,0.00,,,0.00,LWC V2.11 B50,2013-02-02 04:24:00,
2013-02-01 23:29:00,22.1,9.2,30.23,WNW,291,7.0,10.0,57,0.00,,,0.00,LWC V2.11 B50,2013-02-02 04:29:00,
2013-02-01 23:34:00,22.0,9.1,30.23,WNW,294,11.0,13.0,57,0.00,,,0.00,LWC V2.11 B50,2013-02-02 04:34:00,
2013-02-01 23:39:00,22.0,9.1,30.23,West,281,9.0,9.0,57,0.00,,,0.00,LWC V2.11 B50,2013-02-02 04:39:00,
2013-02-01 23:44:00,22.0,9.1,30.24,West,273,8.0,8.0,57,0.00,,,0.00,LWC V2.11 B50,2013-02-02 04:44:00,
2013-02-01 23:49:00,22.0,9.1,30.24,WNW,291,9.0,12.0,57,0.00,,,0.00,LWC V2.11 B50,2013-02-02 04:49:00,
2013-02-01 23:54:00,22.0,9.1,30.24,WNW,303,7.0,10.0,57,0.00,,,0.00,LWC V2.11 B50,2013-02-02 04:54:00,
2013-02-01 23:59:00,21.8,8.9,30.23,NW,306,9.0,14.0,57,0.00,,,0.00,LWC V2.11 B50,2013-02-02 04:59:00,